Portada
METAR-TAF:

METAR-TAF

Aeroports :

Rodés, França

latitud: 44-24N, longitud: 002-29E, altitud: 581 m

Observació

L'informe es va fer fa 22 minuts, a les 17:00 UTC
Vent 5 kt del Oest/Nord-Oest
Temperatura 17°C
Humitat 72%
Pressió 1020 hPa
Visibilitat: 9000 m

METAR: LFCR 191700Z AUTO 30005KT 9000 NSC 17/12 Q1020 NOSIG

Hora: 19:22 (17:22 UTC)

Pronòstic

L'informe es va fer fa 6 hores i 22 minuts, a les 11:00 UTC
Pronòstic vàlid del 19 a les 12 UTC al 20 a les 12 UTC
Vent 6 kt del Sud-Est
Visibilitat 10 km o més
sense núvols per sota de 1500 mi sense presència de cumulonimbus.

TAF: LFCR 191100Z 1912/2012 14006KT CAVOK

Observacions i pronòstics meteorològics de més de 4000 aeroports (METAR i TAF).

Les estacions disponibles són els punts grocs i vermells al mapa.

Posi el ratolí al punt desitjat per veure el nom de l'estació.

Feu clic per veure les observacions i els pronòstics meteorològics.

Per canviar el mapa: feu clic els botons verds amb una creu de color negre per apropar; al botó verd amb un guió per allunyar la imatge; o en les fletxes verdes per a mapes adjacents.


METAR-TAF: